createdAt,value
2023-03-22T00:10:14.244Z,9.26
2023-03-22T00:25:56.478Z,9.09
2023-03-22T00:41:39.133Z,9.03
2023-03-22T00:57:20.917Z,9.04
2023-03-22T01:13:03.222Z,8.95
2023-03-22T01:28:45.781Z,8.97
2023-03-22T01:44:28.037Z,8.95
2023-03-22T02:00:10.353Z,8.89
2023-03-22T02:15:52.888Z,8.84
2023-03-22T02:31:35.066Z,8.7
2023-03-22T02:47:17.675Z,8.51
2023-03-22T03:03:00.598Z,8.32
2023-03-22T03:18:42.937Z,8.14
2023-03-22T03:34:25.241Z,7.94
2023-03-22T03:50:08.195Z,7.78
2023-03-22T04:05:50.289Z,7.58
2023-03-22T04:21:33.301Z,7.39
2023-03-22T04:22:20.691Z,7.53
2023-03-22T04:38:03.378Z,7.49
2023-03-22T04:53:45.854Z,7.54
2023-03-22T05:09:28.632Z,7.61
2023-03-22T05:25:11.013Z,7.65
2023-03-22T05:40:53.232Z,7.66
2023-03-22T05:56:35.801Z,7.68
2023-03-22T06:12:18.300Z,7.86
2023-03-22T06:28:00.784Z,8.26
2023-03-22T06:43:43.102Z,8.58
2023-03-22T06:59:25.260Z,8.84
2023-03-22T07:15:07.932Z,9.14
2023-03-22T07:30:50.732Z,9.47
2023-03-22T07:46:33.755Z,9.97
2023-03-22T08:33:41.921Z,12.28
2023-03-22T08:49:24.553Z,12.77
2023-03-22T09:20:50.241Z,13.63
2023-03-22T09:36:32.623Z,14.87
2023-03-22T09:52:15.066Z,16.41
2023-03-22T10:39:22.409Z,18.07
2023-03-22T11:10:48.092Z,18.37
2023-03-22T11:42:13.145Z,17.73
2023-03-22T11:57:55.231Z,17.71
2023-03-22T12:29:19.938Z,20.95
2023-03-22T12:45:02.085Z,22.31
2023-03-22T13:00:44.975Z,22.43
2023-03-22T13:16:34.542Z,22.92
2023-03-22T13:32:10.352Z,22.41
2023-03-22T13:48:00.125Z,22.01
2023-03-22T14:03:35.482Z,22.71
2023-03-22T14:19:25.033Z,22.09
2023-03-22T15:06:32.070Z,21.14
2023-03-22T15:37:50.653Z,18.71
2023-03-22T16:09:16.249Z,17.41
2023-03-22T16:56:23.945Z,16.2
2023-03-22T17:12:06.296Z,15.74
2023-03-22T17:43:37.912Z,14.95
2023-03-22T17:59:13.393Z,14.71
2023-03-22T18:14:56.313Z,14.55
2023-03-22T18:30:38.225Z,14.36
2023-03-22T18:46:20.994Z,14.16
2023-03-22T19:02:04.109Z,14.01
2023-03-22T19:17:47.004Z,13.89
2023-03-22T19:33:29.842Z,13.78
2023-03-22T19:49:12.680Z,13.72
2023-03-22T20:04:55.544Z,13.6
2023-03-22T20:20:37.955Z,13.52
2023-03-22T20:36:20.527Z,13.39
2023-03-22T20:52:02.803Z,13.23
2023-03-22T21:07:45.103Z,13.05
2023-03-22T21:23:27.667Z,12.97
2023-03-22T21:39:10.592Z,12.85
2023-03-22T21:54:52.803Z,12.58
2023-03-22T22:10:35.512Z,12.32
2023-03-22T22:26:18.296Z,12.12
2023-03-22T22:42:01.154Z,11.88
2023-03-22T22:57:44.203Z,11.75
2023-03-22T23:13:26.494Z,11.67
2023-03-22T23:29:08.835Z,11.62
2023-03-22T23:44:51.432Z,11.53
